createdAt,value
2022-09-30T00:00:32.053Z,17.40
2022-09-30T00:03:17.761Z,17.00
2022-09-30T00:06:08.753Z,16.90
2022-09-30T00:08:55.823Z,17.20
2022-09-30T00:11:42.425Z,17.10
2022-09-30T00:14:28.353Z,17.00
2022-09-30T00:17:13.733Z,17.10
2022-09-30T00:19:59.470Z,17.50
2022-09-30T00:22:46.155Z,17.10
2022-09-30T00:25:31.998Z,16.90
2022-09-30T00:28:17.846Z,17.00
2022-09-30T00:31:06.463Z,17.10
2022-09-30T00:34:07.831Z,16.90
2022-09-30T00:36:55.813Z,17.20
2022-09-30T00:39:41.814Z,17.10
2022-09-30T00:42:30.674Z,17.00
2022-09-30T00:45:18.116Z,17.30
2022-09-30T00:48:11.703Z,17.30
2022-09-30T00:51:05.767Z,17.30
2022-09-30T00:53:56.106Z,17.40
2022-09-30T00:56:46.731Z,17.30
2022-09-30T00:59:56.955Z,17.20
2022-09-30T01:03:02.577Z,17.10
2022-09-30T01:05:49.679Z,17.10
2022-09-30T01:08:39.935Z,17.10
2022-09-30T01:11:28.036Z,17.20
2022-09-30T01:14:26.698Z,17.30
2022-09-30T01:17:32.869Z,17.30
2022-09-30T01:20:40.270Z,17.10
2022-09-30T01:23:51.752Z,16.80
2022-09-30T01:26:45.029Z,17.00
2022-09-30T01:29:47.788Z,17.20
2022-09-30T01:33:04.318Z,17.20
2022-09-30T01:36:48.739Z,17.40
2022-09-30T01:40:00.555Z,17.20
2022-09-30T01:43:11.782Z,17.20
2022-09-30T01:46:10.290Z,17.30
2022-09-30T01:49:23.016Z,17.10
2022-09-30T01:52:32.838Z,17.30
2022-09-30T01:55:31.255Z,17.40
2022-09-30T01:58:33.117Z,17.50
2022-09-30T02:01:42.049Z,17.70
2022-09-30T02:04:38.475Z,17.80
2022-09-30T02:07:33.483Z,17.50
2022-09-30T02:10:38.430Z,17.50
2022-09-30T02:13:57.056Z,17.70
2022-09-30T02:16:48.964Z,17.60
2022-09-30T02:19:46.596Z,17.40
2022-09-30T02:22:42.491Z,17.10
2022-09-30T02:25:33.872Z,17.00
2022-09-30T02:28:27.777Z,17.00
2022-09-30T02:31:15.486Z,16.70
2022-09-30T02:34:07.850Z,16.90
2022-09-30T02:37:19.978Z,16.50
2022-09-30T02:40:14.828Z,16.10
2022-09-30T02:43:00.554Z,16.20
2022-09-30T02:46:09.583Z,16.40
2022-09-30T02:49:02.367Z,16.40
2022-09-30T02:52:00.571Z,16.20
2022-09-30T02:54:59.981Z,16.00
2022-09-30T02:58:00.833Z,16.00
2022-09-30T03:00:46.611Z,15.90
2022-09-30T03:03:38.188Z,15.90
2022-09-30T03:06:24.047Z,16.10
2022-09-30T03:09:10.350Z,16.20
2022-09-30T03:12:08.175Z,16.20
2022-09-30T03:15:04.181Z,16.30
2022-09-30T03:18:11.267Z,16.20
2022-09-30T03:21:17.298Z,16.20
2022-09-30T03:24:40.919Z,16.10
2022-09-30T03:27:32.604Z,15.80
2022-09-30T03:30:27.103Z,15.70
2022-09-30T03:33:15.861Z,16.00
2022-09-30T03:36:12.124Z,15.70
2022-09-30T03:39:25.339Z,15.50
2022-09-30T03:42:53.294Z,15.50
2022-09-30T03:45:52.934Z,15.60
2022-09-30T03:48:41.446Z,15.40
2022-09-30T03:51:29.597Z,15.40
2022-09-30T03:54:45.209Z,15.60
2022-09-30T03:57:31.409Z,15.80
2022-09-30T04:00:17.024Z,15.90
2022-09-30T04:03:02.898Z,16.00
2022-09-30T04:05:49.272Z,15.70
2022-09-30T04:08:34.647Z,15.70
2022-09-30T04:11:20.744Z,15.70
2022-09-30T04:14:06.595Z,15.70
2022-09-30T04:16:54.058Z,15.70
2022-09-30T04:19:40.369Z,15.60
2022-09-30T04:22:26.643Z,15.70
2022-09-30T04:25:29.499Z,15.70
2022-09-30T04:28:16.166Z,15.70
2022-09-30T04:31:04.010Z,15.80
2022-09-30T04:33:50.881Z,15.90
2022-09-30T04:36:36.681Z,15.60
2022-09-30T04:39:23.653Z,15.50
2022-09-30T04:42:09.618Z,15.50
2022-09-30T04:44:55.776Z,15.20
2022-09-30T04:47:47.523Z,15.20
2022-09-30T04:50:33.335Z,15.10
2022-09-30T04:53:20.733Z,14.90
2022-09-30T04:56:06.969Z,14.80
2022-09-30T04:58:54.090Z,14.80
2022-09-30T05:01:42.583Z,14.70
2022-09-30T05:04:28.245Z,14.50
2022-09-30T05:07:13.762Z,14.30
2022-09-30T05:10:00.721Z,14.30
2022-09-30T05:12:46.098Z,14.20
2022-09-30T05:15:31.559Z,14.40
2022-09-30T05:18:18.433Z,14.60
2022-09-30T05:21:04.946Z,14.60
2022-09-30T05:23:50.441Z,14.60
2022-09-30T05:26:36.006Z,14.60
2022-09-30T05:29:21.692Z,14.60
2022-09-30T05:32:07.856Z,14.60
2022-09-30T05:34:55.938Z,14.40
2022-09-30T05:37:42.707Z,14.50
2022-09-30T05:40:28.282Z,14.60
2022-09-30T05:43:17.957Z,14.70
2022-09-30T05:46:03.378Z,14.70
2022-09-30T05:48:48.949Z,14.80
2022-09-30T05:51:34.686Z,15.00
2022-09-30T05:54:20.358Z,14.90
2022-09-30T05:57:08.325Z,14.80
2022-09-30T05:59:54.128Z,14.80
2022-09-30T06:02:41.517Z,14.80
2022-09-30T06:05:27.598Z,14.70
2022-09-30T06:08:14.450Z,15.00
2022-09-30T06:11:00.091Z,15.30
2022-09-30T06:13:47.468Z,15.20
2022-09-30T06:16:34.163Z,15.10
2022-09-30T06:19:21.249Z,15.30
2022-09-30T06:22:08.240Z,15.40
2022-09-30T06:24:55.477Z,15.50
2022-09-30T06:27:45.853Z,15.50
2022-09-30T06:30:35.045Z,15.80
2022-09-30T06:33:22.051Z,15.80
2022-09-30T06:36:08.002Z,15.50
2022-09-30T06:38:54.401Z,15.60
2022-09-30T06:41:43.515Z,15.70
2022-09-30T06:44:29.538Z,15.90
2022-09-30T06:47:23.864Z,16.10
2022-09-30T06:50:20.890Z,16.10
2022-09-30T06:53:12.461Z,15.90
2022-09-30T06:55:58.504Z,15.80
2022-09-30T06:58:45.315Z,15.90
2022-09-30T07:01:31.111Z,16.10
2022-09-30T07:04:16.703Z,16.20
2022-09-30T07:07:02.989Z,15.90
2022-09-30T07:09:49.828Z,15.40
2022-09-30T07:12:36.174Z,16.00
2022-09-30T07:15:23.281Z,16.00
2022-09-30T07:18:09.374Z,15.80
2022-09-30T07:20:56.573Z,15.80
2022-09-30T07:23:47.623Z,15.80
2022-09-30T07:26:33.543Z,15.50
2022-09-30T07:29:19.322Z,15.80
2022-09-30T07:32:04.883Z,16.20
2022-09-30T07:34:50.266Z,16.20
2022-09-30T07:37:36.299Z,16.30
2022-09-30T07:40:21.615Z,16.40
2022-09-30T07:43:07.490Z,16.30
2022-09-30T07:45:56.177Z,16.40
2022-09-30T07:48:43.937Z,16.00
2022-09-30T07:51:33.446Z,16.20
2022-09-30T07:54:23.854Z,16.40
2022-09-30T07:57:11.368Z,16.40
2022-09-30T07:59:57.323Z,16.40
2022-09-30T08:02:42.857Z,16.20
2022-09-30T08:05:29.924Z,16.20
2022-09-30T08:08:17.065Z,16.40
2022-09-30T08:11:04.013Z,16.40
2022-09-30T08:13:54.716Z,16.40
2022-09-30T08:16:40.628Z,16.50
2022-09-30T08:19:27.023Z,16.60
2022-09-30T08:22:13.880Z,16.40
2022-09-30T08:24:59.593Z,16.00
2022-09-30T08:27:45.006Z,15.90
2022-09-30T08:30:30.647Z,15.80
2022-09-30T08:33:15.906Z,15.50
2022-09-30T08:36:06.800Z,15.60
2022-09-30T08:38:54.260Z,15.40
2022-09-30T08:41:49.395Z,15.30
2022-09-30T08:44:46.319Z,15.30
2022-09-30T08:47:49.687Z,15.20
2022-09-30T08:50:48.416Z,15.30
2022-09-30T08:53:37.992Z,15.50
2022-09-30T08:56:33.127Z,15.60
2022-09-30T08:59:30.058Z,15.70
2022-09-30T09:02:18.480Z,15.90
2022-09-30T09:05:10.752Z,16.00
2022-09-30T09:08:11.175Z,15.70
2022-09-30T09:11:24.315Z,15.60
2022-09-30T09:14:31.988Z,15.60
2022-09-30T09:18:21.452Z,15.60
2022-09-30T09:21:16.962Z,15.70
2022-09-30T09:24:05.765Z,15.40
2022-09-30T09:26:57.772Z,15.50
2022-09-30T09:29:56.439Z,15.40
2022-09-30T09:32:42.930Z,15.30
2022-09-30T09:35:40.300Z,15.40
2022-09-30T09:38:45.590Z,15.80
2022-09-30T09:41:46.447Z,16.30
2022-09-30T09:44:48.352Z,16.40
2022-09-30T09:47:34.338Z,16.70
2022-09-30T09:50:27.780Z,16.80
2022-09-30T09:53:52.809Z,16.70
2022-09-30T09:56:39.316Z,16.60
2022-09-30T09:59:24.780Z,16.20
2022-09-30T10:02:26.327Z,16.10
2022-09-30T10:05:25.948Z,15.90
2022-09-30T10:08:15.376Z,15.40
2022-09-30T10:11:04.042Z,15.30
2022-09-30T10:13:51.230Z,15.40
2022-09-30T10:16:37.961Z,15.30
2022-09-30T10:19:27.554Z,15.30
2022-09-30T10:22:14.258Z,15.20
2022-09-30T10:25:25.167Z,15.50
2022-09-30T10:28:24.376Z,16.00
2022-09-30T10:31:44.535Z,16.00
2022-09-30T10:34:31.974Z,16.00
2022-09-30T10:37:23.370Z,15.70
2022-09-30T10:40:16.405Z,15.50
2022-09-30T10:43:02.367Z,15.60
2022-09-30T10:46:06.961Z,16.00
2022-09-30T10:48:55.240Z,16.10
2022-09-30T10:51:46.102Z,16.40
2022-09-30T10:54:40.993Z,16.90
2022-09-30T10:57:33.207Z,16.90
2022-09-30T11:00:27.636Z,16.40
2022-09-30T11:03:25.532Z,16.20
2022-09-30T11:06:13.688Z,16.10
2022-09-30T11:09:13.030Z,16.10
2022-09-30T11:12:09.071Z,16.30
2022-09-30T11:15:04.924Z,16.50
2022-09-30T11:18:02.642Z,16.80
2022-09-30T11:20:58.611Z,16.80
2022-09-30T11:24:03.325Z,16.60
2022-09-30T11:27:13.681Z,16.50
2022-09-30T11:30:36.497Z,16.70
2022-09-30T11:33:49.766Z,16.70
2022-09-30T11:36:50.402Z,16.50
2022-09-30T11:39:45.045Z,16.80
2022-09-30T11:42:40.815Z,16.60
2022-09-30T11:45:50.913Z,16.40
2022-09-30T11:49:14.676Z,16.40
2022-09-30T11:52:18.755Z,16.50
2022-09-30T11:55:19.248Z,16.90
2022-09-30T11:58:39.497Z,17.10
2022-09-30T12:01:32.664Z,17.10
2022-09-30T12:04:32.852Z,17.00
2022-09-30T12:07:22.672Z,17.10
2022-09-30T12:10:28.741Z,17.10
2022-09-30T12:13:31.885Z,16.90
2022-09-30T12:16:22.845Z,16.70
2022-09-30T12:19:25.315Z,16.70
2022-09-30T12:22:41.950Z,16.60
2022-09-30T12:25:33.325Z,16.70
2022-09-30T12:28:58.942Z,16.50
2022-09-30T12:31:51.931Z,16.50
2022-09-30T12:35:17.758Z,16.60
2022-09-30T12:38:41.143Z,16.90
2022-09-30T12:41:41.105Z,16.90
2022-09-30T12:44:39.751Z,17.30
2022-09-30T12:47:34.797Z,17.40
2022-09-30T12:50:26.817Z,17.30
2022-09-30T12:53:31.748Z,17.50
2022-09-30T12:56:20.010Z,17.40
2022-09-30T12:59:07.654Z,17.50
2022-09-30T13:01:53.269Z,17.50
2022-09-30T13:04:43.210Z,17.50
2022-09-30T13:07:33.715Z,17.50
2022-09-30T13:10:29.162Z,17.60
2022-09-30T13:13:25.045Z,17.50
2022-09-30T13:16:10.972Z,17.40
2022-09-30T13:19:00.295Z,17.20
2022-09-30T13:21:47.377Z,17.00
2022-09-30T13:25:00.514Z,16.70
2022-09-30T13:28:21.232Z,16.60
2022-09-30T13:31:23.986Z,16.40
2022-09-30T13:34:12.901Z,16.50
2022-09-30T13:37:02.139Z,16.40
2022-09-30T13:39:56.176Z,16.40
2022-09-30T13:42:49.186Z,16.50
2022-09-30T13:45:39.402Z,16.40
2022-09-30T13:48:36.220Z,16.30
2022-09-30T13:51:24.873Z,16.30
2022-09-30T13:54:31.787Z,16.50
2022-09-30T13:57:50.466Z,16.70
2022-09-30T14:00:58.471Z,16.60
2022-09-30T14:04:06.441Z,16.40
2022-09-30T14:07:12.497Z,16.50
2022-09-30T14:10:22.951Z,16.80
2022-09-30T14:13:35.244Z,16.80
2022-09-30T14:16:31.841Z,16.70
2022-09-30T14:20:02.049Z,16.70
2022-09-30T14:22:48.543Z,16.80
2022-09-30T14:25:43.308Z,16.70
2022-09-30T14:28:48.041Z,16.40
2022-09-30T14:31:34.008Z,16.40
2022-09-30T14:34:22.728Z,16.40
2022-09-30T14:37:22.492Z,16.50
2022-09-30T14:40:20.176Z,16.50
2022-09-30T14:43:20.382Z,16.60
2022-09-30T14:46:14.766Z,16.50
2022-09-30T14:49:06.067Z,16.40
2022-09-30T14:51:52.087Z,16.50
2022-09-30T14:54:47.578Z,16.60
2022-09-30T14:57:35.056Z,16.70
2022-09-30T15:00:33.145Z,16.80
2022-09-30T15:03:19.665Z,16.80
2022-09-30T15:06:16.036Z,16.90
2022-09-30T15:09:06.019Z,16.70
2022-09-30T15:11:51.791Z,16.70
2022-09-30T15:14:50.216Z,16.90
2022-09-30T15:17:39.417Z,17.00
2022-09-30T15:20:33.239Z,17.10
2022-09-30T15:23:26.264Z,17.20
2022-09-30T15:26:13.671Z,17.20
2022-09-30T15:28:59.341Z,17.10
2022-09-30T15:31:54.678Z,17.30
2022-09-30T15:34:43.523Z,17.50
2022-09-30T15:37:33.687Z,17.40
2022-09-30T15:40:40.621Z,17.30
2022-09-30T15:43:43.232Z,17.20
2022-09-30T15:46:38.883Z,17.10
2022-09-30T15:49:40.748Z,17.00
2022-09-30T15:52:37.221Z,17.00
2022-09-30T15:55:44.167Z,16.90
2022-09-30T15:58:33.284Z,16.90
2022-09-30T16:01:22.164Z,16.90
2022-09-30T16:04:18.408Z,16.80
2022-09-30T16:07:11.607Z,16.80
2022-09-30T16:10:00.257Z,17.00
2022-09-30T16:15:42.613Z,16.90
2022-09-30T16:18:34.059Z,17.10
2022-09-30T16:21:52.780Z,17.20
2022-09-30T16:24:38.177Z,17.10
2022-09-30T16:27:29.904Z,16.70
2022-09-30T16:30:18.004Z,16.80
2022-09-30T16:33:06.432Z,16.80
2022-09-30T16:35:52.062Z,16.90
2022-09-30T16:38:37.999Z,17.20
2022-09-30T16:41:25.474Z,17.40
2022-09-30T16:44:11.679Z,17.30
2022-09-30T16:46:57.430Z,17.20
2022-09-30T16:49:45.413Z,17.00
2022-09-30T16:52:31.391Z,16.90
2022-09-30T16:55:17.478Z,16.90
2022-09-30T16:58:05.495Z,16.60
2022-09-30T17:00:51.683Z,16.80
2022-09-30T17:03:37.096Z,16.10
2022-09-30T17:06:31.568Z,16.70
2022-09-30T17:09:17.243Z,16.80
2022-09-30T17:12:03.007Z,17.00
2022-09-30T17:14:49.057Z,17.00
2022-09-30T17:17:34.855Z,17.20
2022-09-30T17:20:22.072Z,17.40
2022-09-30T17:23:07.776Z,17.30
2022-09-30T17:25:54.816Z,18.00
2022-09-30T17:28:40.822Z,17.40
2022-09-30T17:31:26.400Z,17.40
2022-09-30T17:34:13.094Z,17.40
2022-09-30T17:36:59.976Z,17.60
2022-09-30T17:39:46.234Z,17.40
2022-09-30T17:42:53.542Z,17.00
2022-09-30T17:45:50.798Z,16.60
2022-09-30T17:48:38.052Z,16.90
2022-09-30T17:51:23.698Z,17.20
2022-09-30T17:54:09.093Z,16.80
2022-09-30T17:56:57.161Z,16.40
2022-09-30T17:59:45.260Z,16.40
2022-09-30T18:02:31.277Z,16.60
2022-09-30T18:05:17.001Z,16.90
2022-09-30T18:08:03.349Z,17.30
2022-09-30T18:10:49.146Z,17.10
2022-09-30T18:13:34.900Z,16.60
2022-09-30T18:16:20.550Z,16.50
2022-09-30T18:19:07.384Z,16.50
2022-09-30T18:21:52.984Z,16.60
2022-09-30T18:24:56.838Z,17.20
2022-09-30T18:27:42.574Z,17.40
2022-09-30T18:30:29.051Z,17.70
2022-09-30T18:33:17.297Z,17.70
2022-09-30T18:36:07.211Z,17.80
2022-09-30T18:39:00.424Z,17.60
2022-09-30T18:41:50.884Z,17.40
2022-09-30T18:44:37.944Z,17.20
2022-09-30T18:47:23.819Z,17.30
2022-09-30T18:50:10.972Z,17.50
2022-09-30T18:52:57.779Z,17.40
2022-09-30T18:55:45.316Z,17.10
2022-09-30T18:58:32.066Z,16.90
2022-09-30T19:01:18.237Z,17.10
2022-09-30T19:04:03.960Z,17.60
2022-09-30T19:06:50.649Z,17.80
2022-09-30T19:09:36.682Z,17.90
2022-09-30T19:12:23.515Z,17.90
2022-09-30T19:15:13.903Z,18.00
2022-09-30T19:18:00.923Z,18.00
2022-09-30T19:20:47.005Z,18.00
2022-09-30T19:23:34.429Z,17.90
2022-09-30T19:26:19.685Z,17.70
2022-09-30T19:29:07.712Z,17.60
2022-09-30T19:31:53.234Z,17.50
2022-09-30T19:34:39.985Z,17.60
2022-09-30T19:37:27.732Z,17.60
2022-09-30T19:40:21.483Z,17.60
2022-09-30T19:43:08.996Z,17.50
2022-09-30T19:45:59.934Z,16.80
2022-09-30T19:48:45.973Z,16.90
2022-09-30T19:51:33.146Z,17.40
2022-09-30T19:54:37.355Z,17.60
2022-09-30T19:57:26.268Z,17.80
2022-09-30T20:00:15.061Z,17.80
2022-09-30T20:03:00.883Z,17.90
2022-09-30T20:05:46.571Z,17.90
2022-09-30T20:08:34.029Z,18.00
2022-09-30T20:11:21.938Z,18.00
2022-09-30T20:14:27.306Z,18.10
2022-09-30T20:17:13.196Z,17.90
2022-09-30T20:20:17.347Z,17.70
2022-09-30T20:23:03.545Z,17.40
2022-09-30T20:25:51.503Z,17.40
2022-09-30T20:28:36.948Z,17.50
2022-09-30T20:31:22.523Z,17.70
2022-09-30T20:34:11.453Z,17.70
2022-09-30T20:36:57.310Z,17.50
2022-09-30T20:39:42.884Z,17.70
2022-09-30T20:42:31.152Z,17.60
2022-09-30T20:45:18.062Z,17.60
2022-09-30T20:48:04.039Z,17.60
2022-09-30T20:50:49.638Z,17.50
2022-09-30T20:53:39.697Z,17.50
2022-09-30T20:56:28.537Z,17.00
2022-09-30T20:59:18.475Z,16.90
2022-09-30T21:02:07.160Z,17.30
2022-09-30T21:04:52.777Z,17.50
2022-09-30T21:07:39.184Z,17.50
2022-09-30T21:10:24.677Z,17.30
2022-09-30T21:13:11.184Z,16.80
2022-09-30T21:16:04.880Z,16.70
2022-09-30T21:18:51.981Z,16.60
2022-09-30T21:21:37.439Z,16.20
2022-09-30T21:24:25.054Z,16.10
2022-09-30T21:27:10.576Z,16.20
2022-09-30T21:29:56.568Z,16.40
2022-09-30T21:32:43.631Z,16.30
2022-09-30T21:35:28.900Z,16.40
2022-09-30T21:38:17.929Z,16.10
2022-09-30T21:41:05.740Z,16.00
2022-09-30T21:43:51.111Z,16.40
2022-09-30T21:46:36.642Z,16.80
2022-09-30T21:49:26.232Z,16.80
2022-09-30T21:52:11.515Z,16.60
2022-09-30T21:54:57.106Z,16.80
2022-09-30T21:57:45.839Z,16.90
2022-09-30T22:00:31.123Z,16.90
2022-09-30T22:03:16.628Z,17.00
2022-09-30T22:06:02.256Z,17.00
2022-09-30T22:08:47.613Z,16.90
2022-09-30T22:11:33.665Z,16.80
2022-09-30T22:14:19.566Z,16.70
2022-09-30T22:17:09.133Z,16.60
2022-09-30T22:19:56.689Z,16.60
2022-09-30T22:22:47.246Z,16.50
2022-09-30T22:25:33.143Z,16.50
2022-09-30T22:28:18.999Z,16.40
2022-09-30T22:31:24.842Z,16.30
2022-09-30T22:34:31.830Z,16.30
2022-09-30T22:37:35.930Z,16.40
2022-09-30T22:40:21.186Z,16.50
2022-09-30T22:43:06.693Z,16.50
2022-09-30T22:46:06.923Z,16.40
2022-09-30T22:48:53.406Z,16.30
2022-09-30T22:51:39.484Z,16.30
2022-09-30T22:54:26.675Z,16.20
2022-09-30T22:57:12.905Z,16.20
2022-09-30T22:59:59.868Z,16.10
2022-09-30T23:02:45.575Z,16.00
2022-09-30T23:05:31.368Z,16.00
2022-09-30T23:08:17.348Z,16.00
2022-09-30T23:11:03.085Z,16.10
2022-09-30T23:13:48.694Z,16.10
2022-09-30T23:16:34.217Z,16.00
2022-09-30T23:19:20.252Z,16.00
2022-09-30T23:22:06.029Z,16.00
2022-09-30T23:24:51.743Z,15.90
2022-09-30T23:27:37.334Z,15.90
2022-09-30T23:30:22.938Z,15.80
2022-09-30T23:33:12.391Z,16.10
2022-09-30T23:36:00.013Z,16.10
2022-09-30T23:38:46.831Z,16.10
2022-09-30T23:41:34.289Z,16.10
2022-09-30T23:44:19.848Z,16.20
2022-09-30T23:47:21.437Z,16.30
2022-09-30T23:50:07.776Z,16.40
2022-09-30T23:52:53.507Z,16.40
2022-09-30T23:55:38.990Z,16.30
2022-09-30T23:58:25.473Z,16.30
